Flight Track Log - Related Links

Times and Time Zones

All times are in EDT time to prevent confusion due to time zone crossing. See the LOF3357 flight status page for this flight to view local times or setup timezone preferences in your user account.

Time Position Orientation Groundspeed Altitude Reporting Facility
EDT Latitude Longitude Course Direction KTS MPH feet Rate Location/Type
Fri 10:18:42 PM 38.9000 -77.4833 270° West 196 226 2,600  Level Potomac TRACON
Fri 10:19:42 PM 38.8833 -77.5500 252° West 243 280 4,500 1,881 Climbing Potomac TRACON
Fri 10:20:40 PM 38.8772 -77.6394 265° West 266 306 6,300 1,780 Climbing Washington Center
Fri 10:21:40 PM 38.8736 -77.7247 267° West 272 313 8,000 1,916 Climbing Washington Center
Fri 10:22:39 PM 38.8822 -77.8289 276° West 272 313 10,100 1,714 Climbing Washington Center
Fri 10:23:39 PM 38.8889 -77.9172 276° West 278 320 11,400 1,140 Climbing Washington Center
Fri 10:24:00 PM 38.9500 -78.2132 270° West  Level FlightAware
Fri 10:24:40 PM 38.8992 -78.0242 277° West 288 331 12,400  Level Washington Center
Fri 10:25:41 PM 38.9117 -78.1342 278° West 306 352 13,400 958 Climbing Washington Center
Fri 10:26:39 PM 38.9233 -78.2600 277° West 319 367 14,300 966 Climbing Washington Center
Fri 10:27:39 PM 38.9333 -78.3697 277° West 331 381 15,300 942 Climbing Washington Center
Fri 10:28:40 PM 38.9453 -78.4875 277° West 336 387 16,200 942 Climbing Washington Center
Fri 10:29:40 PM 38.9567 -78.6133 277° West 331 381 17,200 893 Climbing Washington Center
Fri 10:30:41 PM 38.9686 -78.7208 278° West 331 381 18,000 893 Climbing Washington Center
Fri 10:31:41 PM 38.9781 -78.8386 276° West 336 387 19,000 966 Climbing Washington Center
Fri 10:32:39 PM 38.9847 -78.9697 274° West 342 394 19,900 958 Climbing Washington Center
Fri 10:33:40 PM 38.9858 -79.0819 271° West 347 399 20,900 984 Climbing Washington Center
Fri 10:34:41 PM 38.9883 -79.2022 272° West 347 399 21,900 1,008 Climbing Washington Center
Fri 10:35:39 PM 38.9908 -79.3253 272° West 347 399 22,900 942 Climbing Washington Center
Fri 10:36:42 PM 38.9975 -79.4458 274° West 347 399 23,800 950 Climbing Washington Center
Fri 10:37:39 PM 39.0000 -79.5636 272° West 347 399 24,800 966 Climbing Washington Center
Fri 10:38:40 PM 39.0000 -79.6892 270° West 347 399 25,700 893 Climbing Washington Center
Fri 10:39:40 PM 39.0022 -79.8067 271° West 347 399 26,600 1,059 Climbing Washington Center
Fri 10:40:39 PM 39.0061 -79.9300 272° West 335 386 27,800 1,040 Climbing Washington Center
Fri 10:42:10 PM 39.0044 -80.0942 269° West 317 365 29,200 947 Climbing Indianapolis Center
Fri 10:43:11 PM 39.0056 -80.2053 271° West 313 360 30,200 836 Climbing Indianapolis Center
Fri 10:44:12 PM 39.0086 -80.3139 272° West 308 354 30,900 639 Climbing Indianapolis Center
Fri 10:45:13 PM 39.0131 -80.4253 273° West 311 358 31,500 541 Climbing Indianapolis Center
Fri 10:46:14 PM 39.0231 -80.5375 277° West 317 365 32,000 246 Climbing Indianapolis Center
Fri 10:47:15 PM 39.0331 -80.6547 276° West 328 377 32,000  Level Indianapolis Center
Fri 10:48:16 PM 39.0431 -80.7792 276° West 347 399 32,000  Level Indianapolis Center
Fri 10:49:17 PM 39.0536 -80.9108 276° West 369 425 32,000  Level Indianapolis Center
Fri 10:50:18 PM 39.0636 -81.0467 275° West 381 438 32,000  Level Indianapolis Center
Fri 10:51:19 PM 39.0778 -81.2153 276° West 399 459 32,000  Level Indianapolis Center
Fri 10:52:20 PM 39.0878 -81.3575 275° West 403 464 32,000  Level Indianapolis Center
Fri 10:53:21 PM 39.0997 -81.5022 276° West 410 472 32,000  Level Indianapolis Center
Fri 10:54:22 PM 39.1094 -81.6481 275° West 413 475 32,000  Level Indianapolis Center
Fri 10:55:23 PM 39.1197 -81.7967 275° West 418 481 32,000  Level Indianapolis Center
Fri 10:56:24 PM 39.1303 -81.9453 275° West 421 484 32,000  Level Indianapolis Center
Fri 10:57:25 PM 39.1403 -82.0942 275° West 419 482 32,000  Level Indianapolis Center
Fri 10:58:26 PM 39.1497 -82.2439 275° West 422 486 32,000  Level Indianapolis Center
Fri 10:59:27 PM 39.1603 -82.3939 275° West 423 487 32,000  Level Indianapolis Center
Fri 11:00:28 PM 39.1692 -82.5453 274° West 426 490 32,000  Level Indianapolis Center
Fri 11:01:29 PM 39.1789 -82.7019 275° West 422 486 32,000  Level Indianapolis Center
Fri 11:02:30 PM 39.1894 -82.8542 275° West 422 486 32,000  Level Indianapolis Center
Fri 11:03:31 PM 39.1992 -83.0331 274° West 423 487 32,000  Level Indianapolis Center
Fri 11:04:32 PM 39.2081 -83.1867 274° West 426 490 32,000  Level Indianapolis Center
Fri 11:05:33 PM 39.2172 -83.3394 274° West 423 487 32,000  Level Indianapolis Center
Fri 11:06:34 PM 39.2256 -83.4922 274° West 423 487 32,000  Level Indianapolis Center
Fri 11:07:35 PM 39.2342 -83.6447 274° West 422 486 32,000  Level Indianapolis Center
Fri 11:08:36 PM 39.2425 -83.7978 274° West 422 486 32,000  Level Indianapolis Center
Fri 11:09:37 PM 39.2508 -83.9514 274° West 423 487 32,000  Level Indianapolis Center
Fri 11:10:38 PM 39.2586 -84.1042 274° West 422 486 32,000  Level Indianapolis Center
Fri 11:11:39 PM 39.2661 -84.2567 274° West 421 484 32,000  Level Indianapolis Center
Fri 11:12:40 PM 39.2733 -84.4103 274° West 423 487 32,000  Level Indianapolis Center
Fri 11:13:41 PM 39.2811 -84.5625 274° West 422 486 32,000  Level Indianapolis Center
Fri 11:14:42 PM 39.2875 -84.7169 273° West 426 490 32,000  Level Indianapolis Center
Fri 11:15:43 PM 39.2950 -84.8703 274° West 424 488 32,000  Level Indianapolis Center
Fri 11:16:44 PM 39.3008 -85.0186 273° West 427 491 32,000  Level Indianapolis Center
Fri 11:17:45 PM 39.3083 -85.1725 274° West 429 494 32,000  Level Indianapolis Center
Fri 11:18:46 PM 39.3139 -85.3278 273° West 432 497 32,000  Level Indianapolis Center
Fri 11:19:47 PM 39.3200 -85.4831 273° West 434 499 32,000  Level Indianapolis Center
Fri 11:20:48 PM 39.3258 -85.6381 273° West 433 498 32,000  Level Indianapolis Center
Fri 11:21:49 PM 39.3311 -85.7925 273° West 430 495 32,000  Level Indianapolis Center
Fri 11:22:50 PM 39.3372 -85.9475 273° West 431 496 32,000  Level Indianapolis Center
Fri 11:23:51 PM 39.3417 -86.1033 272° West 432 497 32,000  Level Indianapolis Center
Fri 11:24:51 PM 39.3475 -86.2589 273° West 430 495 32,000  Level Indianapolis Center
Fri 11:25:52 PM 39.3519 -86.4150 272° West 432 497 32,000  Level Indianapolis Center
Fri 11:26:53 PM 39.3567 -86.5703 272° West 431 496 32,000  Level Indianapolis Center
Fri 11:27:54 PM 39.3614 -86.7256 272° West 431 496 32,000  Level Indianapolis Center
Fri 11:28:55 PM 39.3656 -86.8803 272° West 430 495 32,000 -148 Level Indianapolis Center
Fri 11:29:56 PM 39.3708 -87.0667 272° West 431 496 31,700 -393 Descending Indianapolis Center
Fri 11:30:57 PM 39.3747 -87.2231 272° West 436 502 31,200 -496 Descending Indianapolis Center
Fri 11:31:57 PM 39.3789 -87.3808 272° West 439 505 30,700 -496 Descending Indianapolis Center
Fri 11:32:58 PM 39.3806 -87.5392 271° West 442 509 30,200 -344 Descending Indianapolis Center
Fri 11:33:59 PM 39.3844 -87.6961 272° West 438 504 30,000 -98 Descending Indianapolis Center
Fri 11:35:00 PM 39.3881 -87.8533 272° West 439 505 30,000  Level Indianapolis Center
Fri 11:35:59 PM 39.3903 -87.9897 271° West 436 502 30,000  Level Kansas Center
Fri 11:37:00 PM 39.3658 -88.1397 258° West 435 501 30,000  Level Kansas Center
Fri 11:38:01 PM 39.3281 -88.2844 251° West 432 497 30,000 -443 Level Kansas Center
Fri 11:39:02 PM 39.2814 -88.4603 251° West 430 495 29,100 -1,426 Descending Kansas Center
Fri 11:40:03 PM 39.2422 -88.6089 251° West 434 499 27,100 -1,721 Descending Kansas Center
Fri 11:41:04 PM 39.1994 -88.7625 250° West 442 509 25,600 -1,475 Descending Kansas Center
Fri 11:42:05 PM 39.1600 -88.9086 251° West 438 504 24,100 -1,525 Descending Kansas Center
Fri 11:43:06 PM 39.1158 -89.0664 250° West 437 503 22,500 -1,525 Descending Kansas Center
Fri 11:44:07 PM 39.0775 -89.2086 251° West 424 488 21,000 -1,488 Descending Kansas Center
Fri 11:45:07 PM 39.0394 -89.3472 251° West 414 476 19,500 -1,438 Descending Kansas Center
Fri 11:46:08 PM 39.0011 -89.4822 250° West 406 467 18,100 -1,328 Descending Kansas Center
Fri 11:47:09 PM 38.9594 -89.6294 250° West 409 471 16,800 -1,033 Descending Kansas Center
Fri 11:48:10 PM 38.9233 -89.7622 251° West 399 459 16,000 -934 Descending Kansas Center
Fri 11:49:11 PM 38.8914 -89.8719 250° West 389 448 14,900 -1,525 Descending Kansas Center
Fri 11:50:12 PM 38.8764 -90.0050 262° West 381 438 12,900 -1,918 Descending Kansas Center
Fri 11:51:13 PM 38.8744 -90.1317 269° West 364 419 11,000 -1,869 Descending Kansas Center
Fri 11:52:14 PM 38.8731 -90.2581 269° West 317 365 9,100 -2,410 Descending Kansas Center
Fri 11:53:15 PM 38.8708 -90.3522 268° West 284 327 6,100 -2,851 Descending Kansas Center
Fri 11:53:55 PM 38.8667 -90.4167 265° West 260 299 4,300 -2,361 Descending Gateway TRACON
Fri 11:54:16 PM 38.8497 -90.4294 210° Southwest 274 315 3,700 -1,317 Descending Kansas Center
Fri 11:55:17 PM 38.7992 -90.4486 196° South 217 250 2,500 -1,140 Descending Kansas Center
Fri 11:56:17 PM 38.7750 -90.4139 132° Southeast 161 185 1,400 -893 Descending Kansas Center
Fri 11:57:18 PM 38.7561 -90.3756 122° Southeast 138 159 700 -689 Descending Kansas Center
Fri 11:59:00 PM 38.7487 -90.3700 159° South  Level Estimated

Login

Don't have an account? Register now (free) for customized features, flight alerts, and more!